Time;durP1;ratioP1;P1;durP2;ratioP2;P2;SDS_P1;SDS_P2;PMS_P1;PMS_P2;Temp;Humidity;BMP_temperature;BMP_pressure;BME280_temperature;BME280_humidity;BME280_pressure;Samples;Min_cycle;Max_cycle;Signal;HPM_P1;HPM_P2
2022/07/19 00:00:48;;;;;;;11.73;4.57;;;;;;;20.02;50.72;99702.81;5116969;27;20469;-57
2022/07/19 00:03:14;;;;;;;13.75;4.70;;;;;;;20.03;49.36;99703.63;5119962;27;20046;-56
2022/07/19 00:05:39;;;;;;;19.90;5.32;;;;;;;19.86;51.99;99695.97;5117227;27;20055;-56
2022/07/19 00:08:05;;;;;;;11.15;5.15;;;;;;;19.81;50.80;99694.13;5117341;27;20049;-57
2022/07/19 00:10:30;;;;;;;11.98;4.63;;;;;;;19.73;51.00;99694.78;5119031;27;20015;-57
2022/07/19 00:12:56;;;;;;;9.60;4.68;;;;;;;19.64;52.26;99692.97;5099157;27;20027;-57
2022/07/19 00:15:21;;;;;;;11.90;4.43;;;;;;;19.68;50.38;99697.56;5101925;27;20019;-57
2022/07/19 00:17:47;;;;;;;11.77;4.60;;;;;;;19.73;49.89;99697.50;5121850;27;20095;-57
2022/07/19 00:20:14;;;;;;;14.10;4.97;;;;;;;19.63;50.61;99699.50;5120502;27;20072;-57
2022/07/19 00:22:40;;;;;;;13.40;4.88;;;;;;;19.38;51.80;99693.28;5121336;27;20464;-56
2022/07/19 00:25:05;;;;;;;17.38;4.32;;;;;;;19.23;53.37;99696.97;5123078;27;20076;-57
2022/07/19 00:27:31;;;;;;;14.68;4.78;;;;;;;19.12;54.30;99698.16;5112065;27;20026;-57
2022/07/19 00:29:56;;;;;;;13.55;4.40;;;;;;;18.74;54.84;99696.03;5118499;27;20019;-57
2022/07/19 00:32:25;;;;;;;16.30;5.07;;;;;;;18.75;55.04;99695.00;5116630;27;20409;-57
2022/07/19 00:34:50;;;;;;;9.88;4.75;;;;;;;18.90;53.91;99693.25;5118732;27;20477;-57
2022/07/19 00:37:15;;;;;;;18.48;4.65;;;;;;;18.83;53.97;99695.47;5121448;27;20031;-57
2022/07/19 00:39:41;;;;;;;14.70;4.82;;;;;;;18.81;54.60;99694.94;5119154;27;20015;-56
2022/07/19 00:42:06;;;;;;;10.68;4.55;;;;;;;18.77;54.68;99693.88;5115454;27;20031;-57
2022/07/19 00:44:32;;;;;;;12.90;4.82;;;;;;;18.77;54.26;99691.16;5097497;28;20023;-56
2022/07/19 00:46:57;;;;;;;15.32;4.88;;;;;;;18.91;53.81;99694.84;5123254;27;20417;-56
2022/07/19 00:49:22;;;;;;;13.40;4.80;;;;;;;18.88;53.59;99701.66;5122419;27;20434;-57
2022/07/19 00:51:48;;;;;;;17.60;5.32;;;;;;;18.87;53.70;99699.22;5115621;27;20358;-57
2022/07/19 00:54:14;;;;;;;17.92;4.88;;;;;;;18.80;53.85;99702.28;5116420;27;20030;-57
2022/07/19 00:56:39;;;;;;;10.50;4.47;;;;;;;18.68;55.11;99691.75;5100438;27;20023;-57
2022/07/19 00:59:05;;;;;;;9.02;4.20;;;;;;;18.59;55.70;99698.09;5081449;28;20016;-57
2022/07/19 01:01:31;;;;;;;10.15;4.57;;;;;;;18.62;54.35;99698.34;5113958;28;20474;-56
2022/07/19 01:03:56;;;;;;;8.13;4.32;;;;;;;18.64;53.44;99698.84;5112371;28;20088;-56
2022/07/19 01:06:22;;;;;;;10.73;4.75;;;;;;;18.53;53.62;99684.56;5119495;28;20027;-56
2022/07/19 01:08:47;;;;;;;16.50;4.70;;;;;;;18.56;54.46;99694.03;5103276;28;20038;-56
2022/07/19 01:11:13;;;;;;;10.82;4.63;;;;;;;18.59;53.43;99687.22;5119544;28;20039;-56
2022/07/19 01:13:38;;;;;;;9.65;4.40;;;;;;;18.51;53.98;99685.94;5116203;28;20130;-56
2022/07/19 01:16:04;;;;;;;12.20;4.60;;;;;;;18.36;55.19;99691.47;5097241;28;20039;-57
2022/07/19 01:18:29;;;;;;;10.52;4.32;;;;;;;18.19;55.65;99695.38;5122040;28;20031;-57
2022/07/19 01:20:56;;;;;;;14.23;4.38;;;;;;;18.05;56.42;99697.91;5120163;28;20501;-56
2022/07/19 01:23:22;;;;;;;10.48;4.75;;;;;;;17.92;58.09;99697.72;5099783;28;20084;-57
2022/07/19 01:25:47;;;;;;;14.75;4.53;;;;;;;17.80;57.92;99698.88;5117478;28;20103;-56
2022/07/19 01:28:12;;;;;;;19.45;5.15;;;;;;;17.57;58.59;99700.31;5116848;28;20441;-57
2022/07/19 01:30:38;;;;;;;13.50;4.70;;;;;;;17.71;57.53;99700.50;5115362;28;20028;-56
2022/07/19 01:33:03;;;;;;;9.55;4.32;;;;;;;17.89;56.13;99696.38;5105834;28;20027;-56
2022/07/19 01:35:29;;;;;;;9.43;4.68;;;;;;;17.93;57.01;99693.94;5125014;28;20015;-57
2022/07/19 01:37:55;;;;;;;13.90;4.93;;;;;;;17.87;57.08;99693.97;5106427;28;20114;-56
2022/07/19 01:40:20;;;;;;;17.80;4.90;;;;;;;17.87;56.73;99691.25;5116779;28;20034;-57
2022/07/19 01:42:46;;;;;;;12.48;5.32;;;;;;;17.83;55.33;99687.47;5099995;28;20470;-57
2022/07/19 01:45:12;;;;;;;12.70;4.90;;;;;;;17.70;55.69;99685.34;5117942;28;20027;-59
2022/07/19 01:47:37;;;;;;;12.95;5.03;;;;;;;17.66;56.15;99676.13;5120915;28;20034;-56
2022/07/19 01:50:04;;;;;;;13.35;5.30;;;;;;;17.71;55.92;99678.00;5114410;28;20550;-57
2022/07/19 01:52:29;;;;;;;11.55;4.72;;;;;;;17.67;56.66;99677.75;5109492;28;20043;-56
2022/07/19 01:54:54;;;;;;;12.35;4.90;;;;;;;17.61;58.12;99678.88;5118200;28;20027;-56
2022/07/19 01:57:20;;;;;;;12.98;4.75;;;;;;;17.17;59.37;99684.97;5100478;28;20035;-57
2022/07/19 01:59:45;;;;;;;14.23;4.97;;;;;;;17.24;58.99;99685.50;5113393;28;20020;-57
2022/07/19 02:02:11;;;;;;;17.23;4.88;;;;;;;17.40;57.39;99695.22;5114980;28;20492;-57
2022/07/19 02:04:36;;;;;;;11.07;5.07;;;;;;;17.44;58.86;99688.13;5099713;28;20028;-56
2022/07/19 02:07:02;;;;;;;11.30;5.03;;;;;;;17.58;59.17;99685.66;5110252;28;20062;-57
2022/07/19 02:09:27;;;;;;;12.13;4.75;;;;;;;17.41;58.88;99682.47;5117747;28;20027;-58
2022/07/19 02:11:52;;;;;;;13.00;4.90;;;;;;;17.16;59.14;99667.91;5110350;28;20020;-57
2022/07/19 02:14:18;;;;;;;13.88;4.90;;;;;;;17.01;59.20;99671.47;5122397;27;20028;-57
2022/07/19 02:16:43;;;;;;;9.50;5.20;;;;;;;17.11;59.24;99662.50;5123018;27;20458;-57
2022/07/19 02:19:09;;;;;;;16.65;5.30;;;;;;;17.14;59.16;99661.94;5119914;27;20411;-57
2022/07/19 02:21:34;;;;;;;17.38;5.00;;;;;;;17.22;58.83;99666.00;5123093;27;20027;-57
2022/07/19 02:24:00;;;;;;;16.48;4.65;;;;;;;17.15;59.95;99669.00;5104151;27;20385;-57
2022/07/19 02:26:25;;;;;;;11.30;5.75;;;;;;;16.87;61.11;99661.47;5115558;27;20118;-58
2022/07/19 02:28:51;;;;;;;11.52;4.93;;;;;;;16.59;62.04;99664.44;5122863;27;20054;-58
2022/07/19 02:31:16;;;;;;;12.73;4.53;;;;;;;16.55;62.46;99660.69;5119689;27;20019;-58
2022/07/19 02:33:42;;;;;;;10.23;4.90;;;;;;;16.59;62.11;99664.44;5098275;27;20023;-57
2022/07/19 02:36:08;;;;;;;12.93;4.22;;;;;;;16.54;62.77;99655.53;5119049;27;20020;-57
2022/07/19 02:38:33;;;;;;;9.63;4.22;;;;;;;16.54;62.80;99659.03;5121548;27;20032;-58
2022/07/19 02:40:58;;;;;;;14.75;4.97;;;;;;;16.31;62.16;99657.69;5119391;27;20050;-58
2022/07/19 02:43:24;;;;;;;13.68;5.40;;;;;;;16.25;62.68;99653.38;5122598;27;20031;-58
2022/07/19 02:45:49;;;;;;;20.08;5.38;;;;;;;16.38;61.40;99652.81;5120556;27;20480;-58
2022/07/19 02:48:15;;;;;;;18.55;5.03;;;;;;;16.56;61.61;99662.28;5117321;27;20039;-58
2022/07/19 02:50:40;;;;;;;14.52;5.13;;;;;;;16.53;61.05;99660.13;5103650;27;20024;-58
2022/07/19 02:53:06;;;;;;;13.75;5.10;;;;;;;16.46;61.75;99665.00;5107986;27;20075;-58
2022/07/19 02:55:31;;;;;;;14.25;5.03;;;;;;;16.48;62.96;99668.25;5116257;27;20032;-58
2022/07/19 02:57:57;;;;;;;10.68;4.75;;;;;;;16.48;61.82;99668.25;5122647;27;20031;-58
2022/07/19 03:00:22;;;;;;;16.15;5.03;;;;;;;16.18;63.50;99664.44;5106038;28;20026;-57
2022/07/19 03:02:48;;;;;;;19.02;5.15;;;;;;;16.06;63.82;99661.19;5095241;28;20454;-58
2022/07/19 03:05:13;;;;;;;19.02;5.30;;;;;;;16.23;62.29;99660.94;5115204;27;20028;-57
2022/07/19 03:07:38;;;;;;;10.77;5.03;;;;;;;16.28;62.72;99668.25;5101380;28;20517;-58
2022/07/19 03:10:04;;;;;;;24.52;5.32;;;;;;;16.16;63.07;99666.59;5118618;27;20027;-58
2022/07/19 03:12:30;;;;;;;14.10;4.95;;;;;;;16.30;62.39;99660.66;5119713;27;20019;-57
2022/07/19 03:14:55;;;;;;;20.73;5.18;;;;;;;16.36;62.33;99663.09;5115978;27;20024;-57
2022/07/19 03:17:21;;;;;;;16.92;5.43;;;;;;;16.33;62.43;99660.94;5098048;28;20027;-57
2022/07/19 03:19:46;;;;;;;14.93;4.90;;;;;;;16.33;62.63;99660.94;5096387;28;20367;-57
2022/07/19 03:22:12;;;;;;;17.50;5.40;;;;;;;16.24;62.83;99667.16;5128765;27;20034;-58
2022/07/19 03:24:38;;;;;;;17.27;5.60;;;;;;;16.29;62.62;99669.84;5087404;27;20019;-58
2022/07/19 03:27:03;;;;;;;16.60;5.18;;;;;;;16.28;63.02;99668.25;5122596;27;20031;-57
2022/07/19 03:29:28;;;;;;;17.00;5.20;;;;;;;16.21;64.41;99665.00;5118588;27;20042;-58
2022/07/19 03:31:54;;;;;;;25.75;7.38;;;;;;;16.28;63.69;99658.22;5118233;27;20023;-58
2022/07/19 03:34:19;;;;;;;15.15;5.93;;;;;;;16.44;62.57;99667.16;5093162;27;20016;-58
2022/07/19 03:36:45;;;;;;;16.58;5.25;;;;;;;16.56;62.45;99659.56;5119014;27;20311;-58
2022/07/19 03:39:10;;;;;;;14.20;5.40;;;;;;;16.56;62.36;99667.69;5121261;27;20489;-58
2022/07/19 03:41:35;;;;;;;16.50;5.57;;;;;;;16.64;62.14;99663.63;5099292;28;20089;-58
2022/07/19 03:44:01;;;;;;;21.02;5.75;;;;;;;16.54;62.72;99666.34;5121120;27;20031;-58
2022/07/19 03:46:28;;;;;;;17.55;5.90;;;;;;;16.41;63.28;99673.13;5103336;27;20039;-58
2022/07/19 03:48:54;;;;;;;23.23;5.82;;;;;;;16.46;63.71;99665.00;5106266;27;20027;-58
2022/07/19 03:51:20;;;;;;;23.05;5.68;;;;;;;16.67;63.96;99673.09;5099616;28;20019;-57
2022/07/19 03:53:46;;;;;;;23.10;5.70;;;;;;;16.51;63.85;99670.41;5126062;27;20487;-57
2022/07/19 03:56:12;;;;;;;14.65;5.63;;;;;;;16.88;61.92;99665.81;5114912;27;20035;-58
2022/07/19 03:58:38;;;;;;;14.23;5.55;;;;;;;17.74;58.72;99667.41;5093815;27;20367;-57
2022/07/19 04:01:03;;;;;;;17.42;5.75;;;;;;;18.26;57.38;99673.38;5097642;27;20053;-58
2022/07/19 04:03:29;;;;;;;20.02;5.55;;;;;;;18.88;56.31;99677.22;5120240;27;20071;-58
2022/07/19 04:05:54;;;;;;;13.05;5.80;;;;;;;19.46;53.59;99673.59;5119564;27;20063;-57
2022/07/19 04:08:20;;;;;;;17.17;5.80;;;;;;;19.89;52.46;99676.31;5121572;27;20030;-57
2022/07/19 04:10:45;;;;;;;15.65;5.60;;;;;;;20.11;51.31;99683.09;5116535;27;20039;-58
2022/07/19 04:13:11;;;;;;;20.42;5.82;;;;;;;19.58;53.20;99678.63;5124101;27;20544;-57
2022/07/19 04:15:36;;;;;;;20.08;5.97;;;;;;;18.77;56.01;99683.84;5117429;27;20096;-58
2022/07/19 04:18:01;;;;;;;22.48;6.40;;;;;;;19.27;54.75;99675.44;5116978;27;20031;-57
2022/07/19 04:20:27;;;;;;;24.90;6.00;;;;;;;20.50;51.74;99681.97;5118964;27;20030;-58
2022/07/19 04:22:53;;;;;;;22.25;6.13;;;;;;;22.05;47.76;99674.09;5122308;27;20038;-58
2022/07/19 04:25:19;;;;;;;17.63;5.95;;;;;;;22.79;45.55;99675.63;5116700;27;20102;-58
2022/07/19 04:27:44;;;;;;;22.42;6.55;;;;;;;23.28;45.01;99684.72;5118547;27;20023;-58
2022/07/19 04:30:10;;;;;;;16.95;5.35;;;;;;;23.92;42.61;99680.75;5117671;27;20019;-58
2022/07/19 04:32:35;;;;;;;11.93;5.00;;;;;;;24.37;41.41;99683.16;5095961;28;20020;-58
2022/07/19 04:35:01;;;;;;;19.88;5.90;;;;;;;25.03;40.78;99682.88;5099660;27;20015;-58
2022/07/19 04:37:26;;;;;;;17.20;6.20;;;;;;;24.26;41.23;99683.50;5117665;27;20385;-58
2022/07/19 04:39:52;;;;;;;19.20;5.95;;;;;;;23.55;42.26;99685.63;5097155;28;20043;-58
2022/07/19 04:42:17;;;;;;;21.60;6.25;;;;;;;24.22;41.51;99682.53;5099423;27;20032;-58
2022/07/19 04:44:43;;;;;;;21.02;6.40;;;;;;;24.03;41.77;99695.72;5114108;27;20462;-58
2022/07/19 04:47:08;;;;;;;19.80;6.35;;;;;;;23.97;42.06;99691.53;5114488;27;20054;-59
2022/07/19 04:49:34;;;;;;;16.33;6.00;;;;;;;24.83;39.99;99692.63;5118955;27;20027;-58
2022/07/19 04:51:59;;;;;;;16.95;5.40;;;;;;;24.41;41.13;99690.44;5122240;27;20026;-58
2022/07/19 04:54:25;;;;;;;18.45;5.60;;;;;;;25.05;39.90;99689.66;5120153;27;20032;-58
2022/07/19 04:56:50;;;;;;;23.02;6.38;;;;;;;25.31;39.10;99692.34;5120391;27;20426;-58
2022/07/19 04:59:16;;;;;;;19.98;5.88;;;;;;;25.63;39.11;99694.75;5097748;28;20073;-58
2022/07/19 05:01:41;;;;;;;21.90;6.53;;;;;;;25.51;38.99;99687.22;5120783;27;20137;-55
2022/07/19 05:04:07;;;;;;;19.92;6.30;;;;;;;25.77;38.67;99684.34;5113401;28;20032;-58
2022/07/19 05:06:32;;;;;;;21.25;6.28;;;;;;;26.33;38.15;99690.38;5108804;28;20043;-58
2022/07/19 05:08:57;;;;;;;18.73;6.15;;;;;;;26.74;37.71;99677.75;5121542;28;20504;-58
2022/07/19 05:11:23;;;;;;;16.63;6.18;;;;;;;27.31;36.52;99678.91;5121539;28;20462;-58
2022/07/19 05:13:48;;;;;;;24.13;6.00;;;;;;;27.31;35.96;99682.44;5114487;28;20099;-56
2022/07/19 05:16:14;;;;;;;19.35;6.20;;;;;;;27.90;34.84;99683.09;5120743;28;20031;-60
2022/07/19 05:18:39;;;;;;;14.38;6.13;;;;;;;27.66;35.42;99692.19;5117223;28;20016;-58
2022/07/19 05:21:05;;;;;;;21.85;6.20;;;;;;;26.81;36.74;99691.75;5115747;28;20023;-58
2022/07/19 05:23:31;;;;;;;30.48;6.25;;;;;;;27.50;35.65;99689.31;5089778;28;20534;-57
2022/07/19 05:25:56;;;;;;;21.17;6.32;;;;;;;27.03;36.50;99689.72;5112806;28;20023;-58
2022/07/19 05:28:22;;;;;;;16.52;5.80;;;;;;;27.36;36.12;99686.94;5119805;28;20028;-58
2022/07/19 05:30:48;;;;;;;21.33;6.25;;;;;;;27.78;35.35;99689.41;5118427;28;20069;-60
2022/07/19 05:33:13;;;;;;;14.73;5.63;;;;;;;28.75;34.17;99684.75;5100100;28;20392;-58
2022/07/19 05:35:39;;;;;;;21.02;5.45;;;;;;;27.93;35.85;99694.25;5105110;28;20027;-59
2022/07/19 05:38:04;;;;;;;16.10;5.55;;;;;;;29.13;34.31;99693.63;5119918;28;20046;-58
2022/07/19 05:40:30;;;;;;;19.90;5.72;;;;;;;29.01;34.33;99689.78;5102258;28;20019;-58
2022/07/19 05:42:55;;;;;;;18.30;5.97;;;;;;;28.88;34.69;99688.25;5097116;28;20054;-58
2022/07/19 05:45:20;;;;;;;15.15;5.50;;;;;;;29.20;34.70;99682.75;5108157;28;20076;-58
2022/07/19 05:47:46;;;;;;;18.17;5.22;;;;;;;29.96;33.42;99685.34;5118134;28;20035;-57
2022/07/19 05:50:11;;;;;;;18.83;5.43;;;;;;;29.91;32.95;99688.41;5098603;28;20028;-57
2022/07/19 05:52:37;;;;;;;23.45;6.00;;;;;;;30.70;32.08;99691.63;5124424;27;20023;-57
2022/07/19 05:55:03;;;;;;;26.92;6.32;;;;;;;29.86;32.51;99686.72;5118515;27;20023;-57
2022/07/19 05:57:28;;;;;;;32.10;7.35;;;;;;;30.67;31.90;99689.56;5116527;27;20382;-57
2022/07/19 05:59:54;;;;;;;45.60;7.95;;;;;;;29.64;33.09;99685.41;5100849;27;20290;-57
2022/07/19 06:02:20;;;;;;;51.17;8.50;;;;;;;29.10;32.82;99686.84;5113477;27;20034;-57
2022/07/19 06:04:45;;;;;;;50.40;7.60;;;;;;;29.34;31.97;99685.88;5105511;27;20051;-57
2022/07/19 06:07:11;;;;;;;29.83;6.57;;;;;;;29.90;31.41;99682.03;5107009;27;20106;-57
2022/07/19 06:09:36;;;;;;;35.53;6.00;;;;;;;30.12;30.65;99688.03;5116893;27;20027;-57
2022/07/19 06:12:02;;;;;;;22.20;6.22;;;;;;;30.99;29.73;99681.06;5125986;27;20116;-57
2022/07/19 06:14:27;;;;;;;21.52;6.20;;;;;;;31.29;29.05;99689.47;5117611;27;20058;-57
2022/07/19 06:16:53;;;;;;;22.45;6.15;;;;;;;30.77;29.94;99687.38;5117462;27;20035;-57
2022/07/19 06:19:19;;;;;;;24.10;6.28;;;;;;;31.24;29.35;99686.22;5117002;27;20092;-57
2022/07/19 06:21:44;;;;;;;30.90;6.85;;;;;;;30.94;30.09;99689.69;5100333;27;20523;-57
2022/07/19 06:24:10;;;;;;;15.68;6.50;;;;;;;31.32;29.17;99687.94;5123411;27;20035;-57
2022/07/19 06:26:35;;;;;;;19.15;5.63;;;;;;;32.56;28.28;99684.53;5113902;27;20020;-57
2022/07/19 06:29:01;;;;;;;20.05;6.00;;;;;;;31.41;29.43;99684.94;5116855;27;20034;-57
2022/07/19 06:31:26;;;;;;;31.15;6.25;;;;;;;32.13;28.96;99693.13;5122704;27;20380;-57
2022/07/19 06:33:51;;;;;;;27.17;6.35;;;;;;;32.53;28.34;99688.09;5120576;27;20546;-58
2022/07/19 06:36:18;;;;;;;23.77;5.95;;;;;;;32.61;28.27;99684.19;5117956;27;20031;-58
2022/07/19 06:38:43;;;;;;;35.90;6.95;;;;;;;32.12;28.84;99682.41;5119066;27;20476;-58
2022/07/19 06:41:09;;;;;;;32.90;6.90;;;;;;;32.14;28.34;99683.63;5118890;27;20462;-58
2022/07/19 06:43:35;;;;;;;26.25;6.05;;;;;;;32.62;28.57;99685.78;5123161;27;20047;-57
2022/07/19 06:46:00;;;;;;;22.52;6.03;;;;;;;31.69;29.69;99685.38;5104487;27;20055;-58
2022/07/19 06:48:26;;;;;;;27.90;6.78;;;;;;;32.11;28.69;99689.13;5115075;27;20051;-57
2022/07/19 06:50:51;;;;;;;31.25;6.50;;;;;;;32.85;28.17;99680.88;5119721;27;20422;-57
2022/07/19 06:53:17;;;;;;;36.08;6.97;;;;;;;33.38;27.28;99676.97;5117691;27;20038;-58
2022/07/19 06:55:42;;;;;;;29.55;6.20;;;;;;;34.02;27.11;99676.56;5118685;27;20028;-57
2022/07/19 06:58:08;;;;;;;30.92;6.32;;;;;;;34.18;26.33;99686.63;5097696;28;20371;-58
2022/07/19 07:00:33;;;;;;;27.20;6.45;;;;;;;34.80;26.05;99683.63;5128313;27;20469;-58
2022/07/19 07:02:59;;;;;;;33.03;6.35;;;;;;;34.47;25.77;99684.72;5119346;27;20067;-57
2022/07/19 07:05:24;;;;;;;38.05;7.05;;;;;;;33.72;26.46;99680.41;5100616;27;20042;-57
2022/07/19 07:07:51;;;;;;;37.20;6.55;;;;;;;34.52;26.21;99679.59;5102972;27;20102;-58
2022/07/19 07:10:16;;;;;;;37.63;6.43;;;;;;;34.88;26.04;99688.00;5109014;27;20028;-59
2022/07/19 07:12:42;;;;;;;40.72;6.57;;;;;;;35.17;25.83;99688.88;5114405;27;20023;-57
2022/07/19 07:15:08;;;;;;;39.67;6.93;;;;;;;34.77;25.70;99688.00;5099368;28;20081;-57
2022/07/19 07:17:34;;;;;;;42.88;7.28;;;;;;;34.99;25.11;99688.81;5120851;27;20027;-58
2022/07/19 07:20:00;;;;;;;73.10;8.93;;;;;;;34.51;25.90;99689.09;5098380;27;20016;-58
2022/07/19 07:22:25;;;;;;;86.47;9.43;;;;;;;34.43;25.97;99690.28;5099986;28;20035;-57
2022/07/19 07:24:51;;;;;;;73.03;8.73;;;;;;;35.14;25.90;99694.41;5101890;28;20072;-59
2022/07/19 07:27:16;;;;;;;114.35;11.05;;;;;;;36.19;24.90;99685.47;5099702;27;20027;-57
2022/07/19 07:29:42;;;;;;;102.97;10.30;;;;;;;35.00;25.59;99684.06;5120292;27;20028;-57
2022/07/19 07:32:07;;;;;;;72.55;9.30;;;;;;;34.48;27.13;99681.56;5099150;27;20083;-58
2022/07/19 07:34:33;;;;;;;145.18;13.32;;;;;;;33.47;28.25;99673.84;5115501;27;20419;-58
2022/07/19 07:36:58;;;;;;;146.27;13.32;;;;;;;35.11;26.51;99679.31;5122090;27;20118;-58
2022/07/19 07:39:24;;;;;;;148.88;12.30;;;;;;;34.03;27.67;99682.94;5121723;27;20443;-58
2022/07/19 07:41:49;;;;;;;156.98;14.55;;;;;;;33.43;28.18;99667.50;5120865;27;20027;-58
2022/07/19 07:44:14;;;;;;;166.85;14.05;;;;;;;34.44;27.21;99677.94;5118688;27;20410;-57
2022/07/19 07:46:40;;;;;;;181.80;14.15;;;;;;;34.35;27.38;99671.97;5118866;27;20434;-58
2022/07/19 07:49:05;;;;;;;142.05;12.48;;;;;;;34.34;27.53;99676.72;5117756;27;20020;-57
2022/07/19 07:51:31;;;;;;;117.65;11.52;;;;;;;34.35;27.23;99671.97;5122523;27;20015;-57
2022/07/19 07:53:59;;;;;;;128.48;10.68;;;;;;;35.50;26.21;99680.47;5128232;27;20515;-58
2022/07/19 07:56:24;;;;;;;126.93;11.75;;;;;;;35.23;26.93;99675.31;5107097;27;20112;-57
2022/07/19 07:58:50;;;;;;;137.52;11.50;;;;;;;36.17;25.98;99661.97;5118056;27;20106;-57
2022/07/19 08:01:16;;;;;;;149.65;12.63;;;;;;;36.79;25.90;99671.63;5099663;28;20015;-57
2022/07/19 08:03:41;;;;;;;112.15;12.38;;;;;;;36.07;25.63;99661.63;5114610;27;20039;-57
2022/07/19 08:06:07;;;;;;;123.72;12.55;;;;;;;36.30;25.88;99665.13;5116586;27;20020;-57
2022/07/19 08:08:32;;;;;;;136.43;13.60;;;;;;;36.58;25.80;99662.19;5112440;27;20028;-57
2022/07/19 08:10:58;;;;;;;132.80;12.13;;;;;;;36.76;25.77;99664.06;5112289;27;20030;-57
2022/07/19 08:13:23;;;;;;;129.32;11.30;;;;;;;36.97;25.34;99657.50;5099365;27;20425;-57
2022/07/19 08:15:49;;;;;;;120.50;11.80;;;;;;;36.37;26.85;99659.47;5100952;27;20030;-57
2022/07/19 08:18:15;;;;;;;114.22;12.35;;;;;;;36.33;26.05;99655.94;5107514;27;20062;-57
2022/07/19 08:20:40;;;;;;;127.72;11.52;;;;;;;35.89;27.29;99665.66;5111570;27;20031;-57
2022/07/19 08:23:06;;;;;;;136.27;12.45;;;;;;;36.01;27.08;99659.63;5103314;27;20023;-58
2022/07/19 08:25:33;;;;;;;110.55;10.73;;;;;;;35.78;27.31;99660.91;5112892;27;20377;-57
2022/07/19 08:27:59;;;;;;;102.85;11.57;;;;;;;35.17;28.27;99658.22;5115302;27;20054;-57
2022/07/19 08:30:24;;;;;;;84.90;10.63;;;;;;;35.50;27.59;99655.41;5111751;27;20027;-56
2022/07/19 08:32:49;;;;;;;90.82;10.73;;;;;;;34.73;29.06;99661.34;5119397;27;20023;-57
2022/07/19 08:35:15;;;;;;;91.97;10.20;;;;;;;35.80;27.92;99652.94;5122825;27;20054;-57
2022/07/19 08:37:40;;;;;;;100.18;10.40;;;;;;;35.90;27.88;99650.53;5116369;27;20529;-57
2022/07/19 08:40:07;;;;;;;66.00;9.10;;;;;;;35.42;28.67;99644.25;5127192;27;20488;-57
2022/07/19 08:42:32;;;;;;;69.18;9.55;;;;;;;36.56;27.19;99642.25;5105182;27;20023;-57
2022/07/19 08:45:00;;;;;;;74.68;9.32;;;;;;;36.36;27.57;99638.38;5110072;27;20034;-57
2022/07/19 08:47:26;;;;;;;101.28;11.00;;;;;;;36.91;27.33;99634.81;5119457;27;20366;-56
2022/07/19 08:49:51;;;;;;;96.13;10.35;;;;;;;36.16;27.53;99633.28;5104714;27;20119;-56
2022/07/19 08:52:17;;;;;;;116.38;11.02;;;;;;;36.44;28.10;99637.13;5118508;27;20361;-56
2022/07/19 08:54:42;;;;;;;98.72;10.65;;;;;;;36.81;27.76;99630.13;5097184;28;20066;-59
2022/07/19 08:59:52;;;;;;;74.43;9.07;;;;;;;36.33;27.16;99626.03;5110483;27;20035;-58
2022/07/19 09:02:17;;;;;;;78.40;10.18;;;;;;;35.04;29.70;99622.78;5098840;28;20023;-58
2022/07/19 09:04:43;;;;;;;84.35;10.18;;;;;;;36.18;28.21;99622.53;5108771;28;20497;-58
2022/07/19 09:07:08;;;;;;;97.70;10.57;;;;;;;36.87;26.90;99617.28;5116007;27;20062;-58
2022/07/19 09:09:36;;;;;;;116.18;11.25;;;;;;;36.48;27.44;99618.38;5118419;28;20032;-57
2022/07/19 09:12:02;;;;;;;96.53;9.30;;;;;;;36.84;27.31;99606.94;5117387;28;20051;-57
2022/07/19 09:14:32;;;;;;;81.70;9.38;;;;;;;37.55;26.62;99605.53;5118282;28;20503;-57
2022/07/19 09:17:12;;;;;;;89.78;8.90;;;;;;;36.67;26.99;99603.91;5105776;28;20415;-57
2022/07/19 09:19:39;;;;;;;79.75;9.20;;;;;;;36.98;27.16;99600.47;5117830;28;20051;-57
2022/07/19 09:22:06;;;;;;;77.38;9.15;;;;;;;37.33;26.87;99605.72;5097131;28;20492;-57
2022/07/19 09:24:34;;;;;;;88.05;9.73;;;;;;;37.50;25.75;99598.34;5105391;27;21396;-57
2022/07/19 09:27:01;;;;;;;95.47;10.32;;;;;;;36.81;26.54;99602.19;5126280;27;20075;-57
2022/07/19 09:29:27;;;;;;;48.72;7.22;;;;;;;37.47;24.49;99598.38;5119404;27;20031;-57
2022/07/19 09:32:02;;;;;;;42.13;6.35;;;;;;;37.25;24.07;99592.25;5121460;27;20077;-57
2022/07/19 09:34:28;;;;;;;33.58;6.00;;;;;;;35.43;25.62;99592.09;5120229;27;20023;-57
2022/07/19 09:37:17;;;;;;;59.58;7.53;;;;;;;37.01;26.17;99589.25;5121236;27;20023;-57
2022/07/19 09:39:46;;;;;;;79.05;8.73;;;;;;;37.84;25.20;99582.78;5095174;27;20373;-57
2022/07/19 09:42:13;;;;;;;66.82;8.48;;;;;;;37.61;25.43;99575.09;5107371;27;20023;-57
2022/07/19 09:44:38;;;;;;;46.03;7.63;;;;;;;37.97;24.57;99576.22;5123422;27;20061;-57
2022/07/19 09:47:04;;;;;;;39.60;6.70;;;;;;;38.40;23.73;99586.81;5125456;27;20443;-57
2022/07/19 09:49:29;;;;;;;42.05;7.15;;;;;;;38.00;24.36;99585.03;5123788;27;20436;-57
2022/07/19 09:51:55;;;;;;;40.13;5.68;;;;;;;37.48;24.59;99578.41;5123368;27;20488;-57
2022/07/19 09:54:29;;;;;;;28.27;6.03;;;;;;;36.68;24.71;99574.78;5120282;27;20032;-57
2022/07/19 09:56:58;;;;;;;64.57;8.50;;;;;;;36.33;25.51;99575.81;5097002;28;20070;-57
2022/07/19 09:59:24;;;;;;;43.13;6.70;;;;;;;37.50;25.02;99564.81;5113974;27;20066;-58
2022/07/19 10:01:52;;;;;;;61.63;8.38;;;;;;;38.27;23.60;99574.63;5125320;27;20067;-58
2022/07/19 10:04:19;;;;;;;47.43;7.07;;;;;;;38.68;23.64;99565.22;5120279;27;20495;-57
2022/07/19 10:06:47;;;;;;;51.55;7.38;;;;;;;38.90;23.26;99567.69;5122702;27;20023;-57
2022/07/19 10:09:14;;;;;;;;;;;;;;;38.24;23.61;99561.47;5110655;27;20043;-57
2022/07/19 10:11:39;;;;;;;37.15;7.43;;;;;;;38.12;23.04;99548.88;5118296;27;19915;-57
2022/07/19 10:14:05;;;;;;;38.15;5.60;;;;;;;38.49;19.58;99551.91;5119765;27;20030;-57
2022/07/19 10:16:56;;;;;;;22.05;6.38;;;;;;;37.65;18.70;99554.28;5113905;27;20030;-58
2022/07/19 10:19:37;;;;;;;14.35;4.03;;;;;;;35.18;20.53;99555.94;5098526;28;20260;-57
2022/07/19 10:22:02;;;;;;;10.65;3.58;;;;;;;35.96;20.31;99542.94;5119737;27;20389;-57
2022/07/19 10:24:47;;;;;;;6.60;3.70;;;;;;;35.86;19.21;99539.78;5105617;28;20020;-56
2022/07/19 10:27:37;;;;;;;20.42;4.45;;;;;;;36.01;19.30;99534.91;5117886;27;20512;-57
2022/07/19 10:30:11;;;;;;;7.07;3.88;;;;;;;36.04;19.10;99528.53;5124015;27;20101;-57
2022/07/19 10:32:44;;;;;;;9.35;3.70;;;;;;;35.18;19.79;99531.66;5121752;27;20215;-57
2022/07/19 10:35:17;;;;;;;9.93;3.78;;;;;;;34.86;19.74;99528.91;5116956;27;20504;-57
2022/07/19 10:37:43;;;;;;;10.18;3.90;;;;;;;34.53;19.93;99530.91;5111370;27;20381;-57
2022/07/19 10:40:09;;;;;;;11.88;4.20;;;;;;;35.34;19.41;99519.28;5102401;28;20022;-55
2022/07/19 10:42:34;;;;;;;10.18;4.10;;;;;;;35.68;19.44;99522.38;5120754;27;20019;-57
2022/07/19 10:44:59;;;;;;;10.85;4.45;;;;;;;37.06;19.06;99516.19;5115939;27;20024;-57
2022/07/19 10:47:37;;;;;;;10.55;3.65;;;;;;;35.41;18.99;99508.91;5120320;27;20027;-57
2022/07/19 10:50:14;;;;;;;16.73;4.45;;;;;;;35.59;19.17;99508.06;5123537;27;20366;-57
2022/07/19 10:52:42;;;;;;;12.20;4.00;;;;;;;34.70;19.48;99525.75;5118337;27;20435;-57
2022/07/19 10:55:27;;;;;;;18.48;5.20;;;;;;;35.11;19.62;99520.53;5121691;27;20381;-57
2022/07/19 10:57:53;;;;;;;10.85;4.05;;;;;;;34.83;19.09;99515.00;5115687;27;20085;-56
2022/07/19 11:00:19;;;;;;;12.60;4.22;;;;;;;34.94;19.41;99521.34;5124344;27;20027;-56
2022/07/19 11:02:44;;;;;;;13.13;4.22;;;;;;;35.76;19.10;99512.75;5125083;27;20026;-57
2022/07/19 11:05:23;;;;;;;10.55;4.60;;;;;;;34.48;19.59;99511.81;5120220;27;20035;-57
2022/07/19 11:07:49;;;;;;;8.07;4.50;;;;;;;34.52;19.05;99525.72;5122387;27;20031;-57
2022/07/19 11:10:26;;;;;;;13.52;4.30;;;;;;;34.62;19.18;99507.47;5112459;27;20350;-57
2022/07/19 11:12:52;;;;;;;22.52;4.65;;;;;;;35.61;19.29;99514.03;5119386;27;20050;-57
2022/07/19 11:15:18;;;;;;;18.33;4.53;;;;;;;35.48;18.66;99496.16;5110644;27;20481;-56
2022/07/19 11:18:10;;;;;;;13.35;5.00;;;;;;;34.78;19.09;99499.50;5114952;27;20073;-57
2022/07/19 11:20:37;;;;;;;10.52;4.45;;;;;;;35.12;18.91;99491.50;5095603;27;20096;-58
2022/07/19 11:23:06;;;;;;;13.63;4.72;;;;;;;35.47;18.29;99494.56;5102517;28;20073;-56